createdAt,value
2023-01-26T00:01:19.421Z,5.90
2023-01-26T00:03:47.148Z,5.80
2023-01-26T00:06:17.035Z,5.80
2023-01-26T00:08:47.720Z,5.80
2023-01-26T00:11:17.729Z,5.80
2023-01-26T00:13:45.513Z,5.80
2023-01-26T00:16:14.705Z,5.80
2023-01-26T00:18:43.040Z,5.80
2023-01-26T00:21:14.424Z,5.80
2023-01-26T00:23:42.410Z,5.80
2023-01-26T00:26:13.209Z,5.80
2023-01-26T00:28:40.723Z,5.80
2023-01-26T00:31:12.909Z,5.80
2023-01-26T00:33:40.479Z,5.80
2023-01-26T00:36:11.626Z,5.80
2023-01-26T00:38:40.883Z,5.80
2023-01-26T00:41:09.925Z,5.80
2023-01-26T00:43:37.225Z,5.80
2023-01-26T00:46:04.796Z,5.80
2023-01-26T00:48:32.339Z,5.80
2023-01-26T00:51:00.703Z,5.80
2023-01-26T00:53:28.670Z,5.80
2023-01-26T00:55:58.002Z,5.80
2023-01-26T00:58:25.815Z,5.80
2023-01-26T01:00:53.863Z,5.80
2023-01-26T01:03:21.199Z,5.80
2023-01-26T01:05:48.802Z,5.80
2023-01-26T01:08:16.148Z,5.80
2023-01-26T01:10:43.705Z,5.80
2023-01-26T01:13:11.439Z,5.80
2023-01-26T01:15:40.614Z,5.80
2023-01-26T01:18:07.861Z,5.80
2023-01-26T01:20:35.170Z,5.80
2023-01-26T01:23:03.064Z,5.80
2023-01-26T01:25:30.574Z,5.80
2023-01-26T01:27:57.880Z,5.70
2023-01-26T01:30:25.133Z,5.70
2023-01-26T01:32:53.417Z,5.80
2023-01-26T01:35:20.755Z,5.70
2023-01-26T01:37:48.736Z,5.70
2023-01-26T01:40:16.189Z,5.70
2023-01-26T01:42:48.319Z,6.10
2023-01-26T01:45:28.275Z,5.70
2023-01-26T01:47:59.074Z,5.70
2023-01-26T01:50:27.706Z,5.70
2023-01-26T01:52:56.008Z,5.70
2023-01-26T01:55:25.486Z,5.70
2023-01-26T01:58:00.129Z,5.70
2023-01-26T02:00:28.194Z,5.70
2023-01-26T02:03:20.884Z,5.70
2023-01-26T02:06:14.640Z,5.70
2023-01-26T02:08:51.777Z,5.70
2023-01-26T02:11:36.294Z,5.70
2023-01-26T02:14:08.707Z,5.60
2023-01-26T02:16:36.603Z,5.90
2023-01-26T02:19:05.813Z,5.60
2023-01-26T02:21:33.411Z,5.60
2023-01-26T02:24:08.223Z,5.60
2023-01-26T02:26:37.489Z,5.60
2023-01-26T02:29:09.281Z,5.60
2023-01-26T02:31:41.458Z,5.60
2023-01-26T02:34:09.542Z,5.60
2023-01-26T02:36:37.180Z,5.60
2023-01-26T02:39:54.355Z,5.70
2023-01-26T02:42:41.625Z,5.50
2023-01-26T02:45:12.649Z,5.60
2023-01-26T02:47:40.478Z,5.60
2023-01-26T02:50:09.856Z,5.60
2023-01-26T02:52:38.490Z,5.50
2023-01-26T02:55:22.724Z,5.60
2023-01-26T02:57:55.936Z,5.60
2023-01-26T03:00:27.025Z,5.50
2023-01-26T03:02:58.127Z,5.50
2023-01-26T03:05:27.567Z,5.50
2023-01-26T03:07:55.920Z,5.40
2023-01-26T03:10:26.971Z,5.40
2023-01-26T03:12:54.494Z,5.40
2023-01-26T03:15:40.559Z,5.40
2023-01-26T03:18:30.099Z,5.40
2023-01-26T03:21:21.680Z,5.30
2023-01-26T03:24:08.414Z,5.30
2023-01-26T03:26:54.275Z,5.20
2023-01-26T03:29:22.140Z,5.30
2023-01-26T03:31:49.842Z,5.20
2023-01-26T03:34:18.082Z,5.20
2023-01-26T03:36:47.779Z,5.20
2023-01-26T03:39:35.801Z,5.20
2023-01-26T03:42:24.235Z,5.20
2023-01-26T03:45:10.328Z,5.20
2023-01-26T03:47:58.578Z,5.20
2023-01-26T03:50:44.418Z,5.20
2023-01-26T03:53:39.798Z,5.20
2023-01-26T03:56:37.455Z,5.20
2023-01-26T03:59:15.480Z,5.20
2023-01-26T04:02:05.621Z,5.20
2023-01-26T04:04:52.674Z,5.20
2023-01-26T04:07:42.753Z,5.20
2023-01-26T04:10:10.798Z,5.20
2023-01-26T04:12:38.269Z,5.10
2023-01-26T04:15:35.962Z,5.10
2023-01-26T04:18:26.704Z,5.10
2023-01-26T04:21:13.678Z,5.10
2023-01-26T04:23:43.633Z,5.10
2023-01-26T04:26:11.350Z,5.20
2023-01-26T04:28:39.192Z,5.20
2023-01-26T04:31:06.681Z,5.10
2023-01-26T04:33:36.525Z,5.10
2023-01-26T04:36:05.772Z,5.10
2023-01-26T04:38:34.551Z,5.20
2023-01-26T04:41:02.178Z,5.20
2023-01-26T04:43:33.731Z,5.10
2023-01-26T04:46:06.056Z,5.10
2023-01-26T04:48:35.499Z,5.10
2023-01-26T04:51:05.956Z,5.10
2023-01-26T04:53:33.860Z,5.10
2023-01-26T04:56:01.269Z,5.10
2023-01-26T04:58:30.322Z,5.10
2023-01-26T05:00:58.503Z,5.10
2023-01-26T05:03:26.540Z,5.10
2023-01-26T05:05:55.003Z,5.10
2023-01-26T05:08:24.991Z,5.10
2023-01-26T05:10:52.379Z,5.10
2023-01-26T05:13:26.328Z,5.10
2023-01-26T05:16:04.683Z,5.10
2023-01-26T05:18:58.133Z,5.10
2023-01-26T05:21:45.845Z,5.10
2023-01-26T05:24:13.900Z,5.10
2023-01-26T05:26:44.224Z,5.10
2023-01-26T05:29:18.042Z,5.10
2023-01-26T05:31:46.227Z,5.10
2023-01-26T05:34:13.738Z,5.00
2023-01-26T05:36:41.096Z,5.00
2023-01-26T05:39:09.072Z,5.00
2023-01-26T05:41:36.529Z,4.90
2023-01-26T05:44:19.102Z,4.90
2023-01-26T05:46:53.833Z,4.90
2023-01-26T05:49:21.120Z,4.90
2023-01-26T05:51:48.490Z,4.90
2023-01-26T05:54:16.185Z,4.90
2023-01-26T05:56:43.522Z,4.90
2023-01-26T05:59:11.255Z,4.90
2023-01-26T06:01:39.353Z,4.90
2023-01-26T06:04:08.594Z,4.90
2023-01-26T06:06:42.377Z,4.90
2023-01-26T06:09:22.685Z,4.90
2023-01-26T06:12:18.441Z,4.90
2023-01-26T06:15:07.532Z,4.90
2023-01-26T06:17:39.524Z,4.90
2023-01-26T06:20:10.309Z,4.80
2023-01-26T06:22:37.798Z,4.80
2023-01-26T06:25:05.414Z,4.70
2023-01-26T06:27:34.134Z,4.80
2023-01-26T06:30:05.349Z,4.80
2023-01-26T06:32:32.797Z,4.70
2023-01-26T06:35:00.801Z,4.70
2023-01-26T06:37:28.145Z,4.80
2023-01-26T06:39:55.477Z,4.80
2023-01-26T06:42:23.753Z,4.80
2023-01-26T06:44:51.840Z,5.10
2023-01-26T06:47:19.278Z,4.80
2023-01-26T06:49:47.111Z,4.80
2023-01-26T06:52:28.153Z,4.80
2023-01-26T06:55:01.439Z,4.80
2023-01-26T06:57:50.042Z,4.70
2023-01-26T07:00:54.822Z,4.70
2023-01-26T07:03:29.590Z,4.60
2023-01-26T07:05:57.649Z,4.60
2023-01-26T07:08:24.987Z,4.50
2023-01-26T07:10:52.536Z,4.40
2023-01-26T07:13:20.497Z,4.30
2023-01-26T07:15:47.746Z,4.30
2023-01-26T07:18:15.502Z,4.20
2023-01-26T07:20:43.216Z,4.20
2023-01-26T07:23:11.177Z,4.10
2023-01-26T07:25:38.501Z,4.10
2023-01-26T07:28:05.788Z,4.00
2023-01-26T07:30:33.090Z,3.90
2023-01-26T07:33:00.871Z,3.90
2023-01-26T07:35:29.745Z,3.90
2023-01-26T07:37:58.923Z,3.90
2023-01-26T07:40:26.311Z,3.80
2023-01-26T07:42:56.113Z,3.80
2023-01-26T07:45:54.059Z,3.80
2023-01-26T07:48:23.865Z,3.70
2023-01-26T07:50:51.432Z,3.70
2023-01-26T07:53:22.858Z,3.60
2023-01-26T07:55:50.537Z,3.90
2023-01-26T07:58:21.272Z,3.60
2023-01-26T08:00:48.669Z,3.70
2023-01-26T08:03:16.982Z,3.70
2023-01-26T08:05:44.374Z,3.80
2023-01-26T08:08:12.454Z,3.80
2023-01-26T08:10:40.723Z,3.80
2023-01-26T08:13:08.001Z,3.80
2023-01-26T08:15:35.621Z,3.80
2023-01-26T08:18:04.422Z,3.80
2023-01-26T08:20:32.615Z,3.70
2023-01-26T08:23:00.618Z,4.10
2023-01-26T08:25:28.238Z,3.70
2023-01-26T08:27:55.927Z,3.70
2023-01-26T08:30:24.066Z,3.70
2023-01-26T08:32:51.657Z,3.70
2023-01-26T08:35:19.025Z,3.70
2023-01-26T08:37:46.434Z,3.60
2023-01-26T08:40:14.220Z,3.60
2023-01-26T08:42:41.702Z,4.00
2023-01-26T08:45:09.773Z,3.50
2023-01-26T08:47:37.242Z,3.50
2023-01-26T08:50:05.107Z,3.50
2023-01-26T08:52:32.698Z,3.50
2023-01-26T08:55:01.145Z,3.40
2023-01-26T08:57:28.933Z,3.40
2023-01-26T08:59:56.332Z,3.40
2023-01-26T09:02:23.740Z,3.40
2023-01-26T09:04:51.207Z,3.40
2023-01-26T09:07:18.542Z,3.40
2023-01-26T09:09:45.979Z,3.40
2023-01-26T09:12:13.883Z,3.40
2023-01-26T09:14:41.863Z,3.50
2023-01-26T09:17:09.208Z,3.50
2023-01-26T09:19:36.738Z,3.50
2023-01-26T09:22:04.026Z,3.60
2023-01-26T09:24:31.518Z,3.60
2023-01-26T09:26:59.147Z,3.60
2023-01-26T09:29:26.475Z,3.60
2023-01-26T09:31:54.275Z,3.70
2023-01-26T09:34:21.677Z,3.70
2023-01-26T09:36:49.051Z,3.80
2023-01-26T09:39:17.033Z,3.80
2023-01-26T09:42:02.037Z,3.90
2023-01-26T09:44:41.665Z,3.90
2023-01-26T09:47:42.094Z,4.00
2023-01-26T09:50:15.133Z,4.10
2023-01-26T09:52:57.372Z,4.10
2023-01-26T09:55:25.592Z,4.10
2023-01-26T09:58:01.549Z,4.10
2023-01-26T10:00:43.594Z,4.00
2023-01-26T10:03:41.500Z,4.20
2023-01-26T10:06:27.730Z,4.20
2023-01-26T10:09:19.004Z,4.30
2023-01-26T10:11:51.718Z,4.30
2023-01-26T10:14:33.713Z,4.30
2023-01-26T10:17:06.028Z,4.20
2023-01-26T10:19:42.455Z,4.20
2023-01-26T10:22:20.316Z,4.20
2023-01-26T10:24:50.872Z,4.20
2023-01-26T10:27:18.948Z,4.20
2023-01-26T10:29:46.585Z,4.20
2023-01-26T10:32:17.754Z,4.60
2023-01-26T10:34:48.253Z,4.20
2023-01-26T10:37:26.383Z,4.30
2023-01-26T10:39:59.787Z,4.30
2023-01-26T10:42:30.547Z,4.70
2023-01-26T10:45:02.130Z,4.20
2023-01-26T10:47:30.605Z,4.70
2023-01-26T10:50:24.239Z,4.20
2023-01-26T10:53:03.204Z,4.10
2023-01-26T10:55:32.903Z,4.10
2023-01-26T10:58:01.295Z,4.20
2023-01-26T11:00:31.571Z,4.20
2023-01-26T11:03:14.269Z,4.20
2023-01-26T11:05:43.401Z,4.20
2023-01-26T11:08:35.344Z,4.30
2023-01-26T11:11:04.247Z,4.30
2023-01-26T11:13:31.678Z,4.30
2023-01-26T11:16:24.138Z,4.40
2023-01-26T11:19:03.273Z,4.40
2023-01-26T11:21:33.321Z,4.50
2023-01-26T11:24:08.399Z,4.50
2023-01-26T11:27:02.514Z,4.40
2023-01-26T11:30:09.026Z,4.40
2023-01-26T11:33:15.766Z,4.40
2023-01-26T11:35:54.577Z,4.40
2023-01-26T11:38:44.368Z,4.40
2023-01-26T11:41:30.909Z,4.40
2023-01-26T11:44:15.893Z,4.40
2023-01-26T11:47:05.449Z,4.40
2023-01-26T11:49:38.997Z,4.40
2023-01-26T11:52:06.476Z,4.70
2023-01-26T11:54:48.634Z,4.50
2023-01-26T11:57:34.324Z,4.50
2023-01-26T12:00:29.570Z,4.60
2023-01-26T12:03:06.267Z,4.70
2023-01-26T12:05:54.031Z,4.70
2023-01-26T12:08:29.395Z,4.70
2023-01-26T12:11:25.649Z,4.80
2023-01-26T12:14:15.752Z,4.80
2023-01-26T12:16:43.121Z,4.90
2023-01-26T12:19:28.911Z,4.90
2023-01-26T12:22:02.673Z,4.90
2023-01-26T12:25:08.150Z,4.80
2023-01-26T12:27:34.860Z,5.00
2023-01-26T12:30:30.793Z,4.80
2023-01-26T12:32:58.305Z,4.80
2023-01-26T12:35:48.848Z,4.90
2023-01-26T12:38:43.537Z,4.90
2023-01-26T12:41:29.087Z,4.90
2023-01-26T12:44:18.590Z,4.90
2023-01-26T12:46:56.550Z,4.90
2023-01-26T12:49:37.134Z,4.90
2023-01-26T12:52:40.074Z,4.90
2023-01-26T12:55:14.572Z,4.90
2023-01-26T12:57:50.393Z,4.90
2023-01-26T13:00:20.028Z,4.90
2023-01-26T13:02:52.205Z,4.80
2023-01-26T13:05:29.258Z,4.80
2023-01-26T13:07:56.675Z,4.70
2023-01-26T13:10:27.603Z,4.70
2023-01-26T13:13:26.469Z,4.70
2023-01-26T13:16:15.793Z,4.70
2023-01-26T13:18:54.672Z,4.70
2023-01-26T13:21:26.989Z,4.70
2023-01-26T13:23:54.515Z,4.70
2023-01-26T13:26:41.770Z,4.80
2023-01-26T13:29:24.758Z,4.90
2023-01-26T13:31:56.685Z,4.80
2023-01-26T13:34:36.758Z,4.80
2023-01-26T13:37:21.563Z,4.90
2023-01-26T13:39:55.558Z,4.80
2023-01-26T13:42:28.283Z,5.10
2023-01-26T13:45:02.913Z,4.90
2023-01-26T13:47:37.883Z,4.90
2023-01-26T13:50:32.090Z,4.90
2023-01-26T13:53:00.624Z,4.90
2023-01-26T13:55:31.461Z,5.20
2023-01-26T13:58:13.843Z,4.90
2023-01-26T14:00:41.945Z,4.80
2023-01-26T14:03:23.637Z,4.90
2023-01-26T14:06:06.235Z,4.80
2023-01-26T14:08:43.758Z,4.90
2023-01-26T14:11:23.718Z,4.90
2023-01-26T14:13:59.911Z,5.00
2023-01-26T14:16:35.784Z,4.90
2023-01-26T14:19:24.177Z,5.00
2023-01-26T14:22:03.738Z,5.00
2023-01-26T14:24:35.614Z,5.00
2023-01-26T14:27:04.201Z,5.10
2023-01-26T14:29:38.271Z,5.40
2023-01-26T14:32:15.601Z,5.00
2023-01-26T14:34:58.805Z,5.00
2023-01-26T14:37:27.339Z,5.00
2023-01-26T14:40:20.800Z,5.10
2023-01-26T14:42:52.736Z,5.00
2023-01-26T14:45:31.174Z,5.00
2023-01-26T14:48:07.617Z,5.00
2023-01-26T14:50:36.962Z,5.20
2023-01-26T14:53:05.712Z,5.00
2023-01-26T14:55:36.387Z,5.00
2023-01-26T14:58:19.188Z,5.00
2023-01-26T15:00:50.137Z,5.10
2023-01-26T15:03:24.697Z,5.10
2023-01-26T15:06:20.208Z,5.10
2023-01-26T15:08:58.474Z,5.10
2023-01-26T15:12:10.209Z,5.10
2023-01-26T15:14:59.372Z,5.10
2023-01-26T15:17:59.690Z,5.10
2023-01-26T15:20:27.308Z,5.10
2023-01-26T15:22:55.083Z,5.10
2023-01-26T15:25:33.316Z,5.10
2023-01-26T15:28:01.487Z,5.00
2023-01-26T15:30:32.533Z,5.10
2023-01-26T15:33:00.478Z,5.10
2023-01-26T15:35:32.101Z,5.10
2023-01-26T15:38:11.795Z,5.10
2023-01-26T15:40:39.709Z,5.10
2023-01-26T15:43:13.506Z,5.10
2023-01-26T15:46:01.939Z,5.10
2023-01-26T15:48:31.750Z,5.10
2023-01-26T15:50:59.121Z,5.20
2023-01-26T15:53:26.890Z,5.20
2023-01-26T15:55:55.900Z,5.40
2023-01-26T15:58:25.420Z,5.20
2023-01-26T16:00:53.545Z,5.20
2023-01-26T16:03:22.422Z,5.20
2023-01-26T16:05:50.309Z,5.20
2023-01-26T16:08:20.474Z,5.30
2023-01-26T16:10:50.250Z,5.50
2023-01-26T16:13:18.978Z,5.30
2023-01-26T16:15:48.993Z,5.30
2023-01-26T16:18:21.081Z,5.30
2023-01-26T16:20:49.571Z,5.30
2023-01-26T16:23:25.856Z,5.30
2023-01-26T16:25:53.594Z,5.30
2023-01-26T16:28:25.354Z,5.40
2023-01-26T16:30:52.811Z,5.30
2023-01-26T16:33:24.992Z,5.40
2023-01-26T16:35:54.540Z,5.40
2023-01-26T16:38:21.822Z,5.40
2023-01-26T16:40:49.723Z,5.40
2023-01-26T16:43:24.335Z,5.50
2023-01-26T16:45:53.264Z,5.40
2023-01-26T16:48:21.660Z,5.40
2023-01-26T16:50:53.142Z,5.40
2023-01-26T16:53:27.405Z,5.40
2023-01-26T16:55:55.317Z,5.30
2023-01-26T16:58:26.055Z,5.30
2023-01-26T17:00:55.147Z,5.30
2023-01-26T17:03:23.846Z,5.30
2023-01-26T17:05:51.237Z,5.30
2023-01-26T17:08:19.558Z,5.30
2023-01-26T17:11:01.177Z,5.30
2023-01-26T17:13:29.685Z,5.40
2023-01-26T17:15:58.367Z,5.40
2023-01-26T17:18:25.847Z,5.40
2023-01-26T17:20:53.506Z,5.40
2023-01-26T17:23:21.025Z,5.40
2023-01-26T17:25:48.910Z,5.40
2023-01-26T17:28:16.311Z,5.40
2023-01-26T17:30:43.699Z,5.40
2023-01-26T17:33:11.061Z,5.40
2023-01-26T17:35:38.658Z,5.40
2023-01-26T17:38:05.984Z,5.40
2023-01-26T17:40:33.419Z,5.40
2023-01-26T17:43:00.680Z,5.40
2023-01-26T17:45:28.630Z,5.30
2023-01-26T17:47:55.993Z,5.30
2023-01-26T17:50:23.497Z,5.30
2023-01-26T17:52:51.154Z,5.30
2023-01-26T17:55:18.774Z,5.40
2023-01-26T17:57:46.706Z,5.40
2023-01-26T18:00:15.907Z,5.40
2023-01-26T18:02:43.203Z,5.40
2023-01-26T18:05:11.039Z,5.40
2023-01-26T18:07:38.595Z,5.40
2023-01-26T18:10:06.681Z,5.40
2023-01-26T18:12:34.573Z,5.30
2023-01-26T18:15:01.872Z,5.40
2023-01-26T18:17:29.190Z,5.30
2023-01-26T18:19:56.590Z,5.30
2023-01-26T18:22:23.944Z,5.30
2023-01-26T18:24:52.642Z,5.30
2023-01-26T18:27:19.893Z,5.30
2023-01-26T18:29:47.554Z,5.30
2023-01-26T18:32:14.926Z,5.30
2023-01-26T18:34:43.449Z,5.30
2023-01-26T18:37:11.294Z,5.30
2023-01-26T18:39:38.610Z,5.30
2023-01-26T18:42:06.001Z,5.30
2023-01-26T18:44:33.489Z,5.40
2023-01-26T18:47:00.859Z,5.40
2023-01-26T18:49:28.232Z,5.40
2023-01-26T18:51:55.694Z,5.40
2023-01-26T18:54:24.310Z,5.40
2023-01-26T18:56:51.606Z,5.40
2023-01-26T18:59:18.950Z,5.40
2023-01-26T19:01:46.640Z,5.40
2023-01-26T19:04:16.617Z,5.40
2023-01-26T19:06:45.483Z,5.50
2023-01-26T19:09:12.886Z,5.40
2023-01-26T19:11:40.273Z,5.40
2023-01-26T19:14:08.249Z,5.50
2023-01-26T19:16:36.045Z,5.50
2023-01-26T19:19:04.914Z,5.50
2023-01-26T19:21:33.990Z,5.50
2023-01-26T19:24:06.522Z,5.50
2023-01-26T19:26:34.122Z,5.50
2023-01-26T19:29:01.658Z,5.50
2023-01-26T19:31:29.303Z,5.50
2023-01-26T19:34:01.817Z,5.50
2023-01-26T19:36:31.754Z,5.50
2023-01-26T19:38:59.557Z,5.50
2023-01-26T19:41:27.583Z,5.50
2023-01-26T19:43:55.297Z,5.50
2023-01-26T19:46:23.300Z,5.50
2023-01-26T19:48:50.724Z,5.50
2023-01-26T19:51:24.179Z,5.50
2023-01-26T19:53:55.105Z,5.50
2023-01-26T19:56:28.117Z,5.50
2023-01-26T19:58:59.056Z,5.50
2023-01-26T20:01:28.124Z,5.50
2023-01-26T20:04:01.454Z,5.50
2023-01-26T20:06:31.349Z,5.50
2023-01-26T20:08:59.747Z,5.60
2023-01-26T20:11:29.364Z,5.60
2023-01-26T20:13:58.283Z,5.60
2023-01-26T20:16:28.105Z,5.60
2023-01-26T20:18:57.393Z,5.80
2023-01-26T20:21:25.078Z,5.60
2023-01-26T20:23:55.482Z,5.60
2023-01-26T20:26:24.891Z,5.60
2023-01-26T20:28:54.013Z,5.60
2023-01-26T20:31:24.108Z,5.60
2023-01-26T20:33:53.416Z,5.60
2023-01-26T20:36:25.781Z,5.60
2023-01-26T20:38:54.494Z,5.60
2023-01-26T20:41:25.217Z,5.60
2023-01-26T20:44:01.097Z,5.60
2023-01-26T20:46:31.445Z,5.60
2023-01-26T20:48:59.029Z,5.60
2023-01-26T20:51:30.276Z,5.60
2023-01-26T20:53:58.169Z,5.60
2023-01-26T20:56:25.876Z,5.60
2023-01-26T20:58:54.351Z,5.60
2023-01-26T21:01:22.705Z,5.60
2023-01-26T21:03:51.897Z,5.60
2023-01-26T21:06:21.335Z,5.60
2023-01-26T21:08:52.339Z,5.60
2023-01-26T21:11:20.812Z,5.60
2023-01-26T21:13:48.703Z,5.60
2023-01-26T21:16:17.492Z,5.80
2023-01-26T21:18:46.279Z,5.60
2023-01-26T21:21:18.379Z,5.60
2023-01-26T21:23:47.064Z,5.40
2023-01-26T21:26:20.228Z,5.70
2023-01-26T21:28:51.754Z,5.60
2023-01-26T21:31:20.836Z,5.90
2023-01-26T21:33:49.295Z,5.90
2023-01-26T21:36:19.429Z,5.60
2023-01-26T21:38:50.760Z,5.60
2023-01-26T21:41:43.053Z,5.60
2023-01-26T21:44:16.013Z,5.60
2023-01-26T21:46:48.027Z,5.50
2023-01-26T21:49:16.361Z,5.60
2023-01-26T21:52:02.207Z,5.50
2023-01-26T21:54:30.130Z,5.60
2023-01-26T21:56:58.562Z,5.50
2023-01-26T21:59:28.231Z,5.60
2023-01-26T22:01:58.720Z,5.50
2023-01-26T22:04:32.897Z,5.60
2023-01-26T22:07:01.762Z,5.80
2023-01-26T22:09:30.463Z,5.60
2023-01-26T22:12:06.488Z,5.60
2023-01-26T22:14:34.522Z,5.50
2023-01-26T22:17:02.529Z,5.50
2023-01-26T22:19:30.054Z,5.50
2023-01-26T22:21:58.437Z,5.50
2023-01-26T22:24:26.021Z,5.80
2023-01-26T22:26:53.373Z,5.50
2023-01-26T22:29:21.149Z,5.80
2023-01-26T22:31:50.729Z,5.80
2023-01-26T22:34:18.407Z,5.50
2023-01-26T22:36:45.761Z,5.50
2023-01-26T22:39:13.974Z,5.50
2023-01-26T22:41:42.021Z,5.50
2023-01-26T22:44:10.821Z,5.50
2023-01-26T22:46:38.745Z,5.50
2023-01-26T22:49:07.203Z,5.50
2023-01-26T22:51:38.554Z,5.50
2023-01-26T22:54:06.809Z,5.50
2023-01-26T22:56:34.596Z,5.20
2023-01-26T22:59:02.716Z,5.60
2023-01-26T23:01:33.325Z,5.60
2023-01-26T23:04:02.150Z,5.60
2023-01-26T23:06:30.103Z,5.60
2023-01-26T23:09:02.143Z,5.60
2023-01-26T23:11:30.599Z,5.60
2023-01-26T23:14:00.548Z,5.60
2023-01-26T23:17:21.224Z,5.60
2023-01-26T23:19:50.011Z,5.60
2023-01-26T23:22:19.204Z,5.30
2023-01-26T23:25:07.446Z,5.70
2023-01-26T23:27:35.413Z,5.80
2023-01-26T23:30:03.643Z,5.70
2023-01-26T23:32:33.726Z,5.70
2023-01-26T23:35:02.983Z,5.70
2023-01-26T23:37:30.875Z,5.60
2023-01-26T23:40:02.319Z,5.70
2023-01-26T23:42:41.540Z,5.90
2023-01-26T23:45:18.337Z,5.70
2023-01-26T23:47:46.547Z,5.70
2023-01-26T23:50:17.382Z,5.70
2023-01-26T23:52:44.835Z,5.70
2023-01-26T23:55:14.942Z,5.70
2023-01-26T23:57:45.095Z,5.70
